sensor_id;sensor_type;location;lat;lon;timestamp;P1;durP1;ratioP1;P2;durP2;ratioP2
49488;SDS011;35382;51.484;11.476;2022-07-06T00:01:12;7.07;;;5.82;;
49488;SDS011;35382;51.484;11.476;2022-07-06T00:02:53;6.70;;;6.10;;
49488;SDS011;35382;51.484;11.476;2022-07-06T00:04:34;6.65;;;6.15;;
49488;SDS011;35382;51.484;11.476;2022-07-06T00:06:15;6.88;;;6.22;;
49488;SDS011;35382;51.484;11.476;2022-07-06T00:07:57;7.60;;;7.00;;
49488;SDS011;35382;51.484;11.476;2022-07-06T00:09:38;7.60;;;7.00;;
49488;SDS011;35382;51.484;11.476;2022-07-06T00:11:19;7.20;;;6.60;;
49488;SDS011;35382;51.484;11.476;2022-07-06T00:13:00;7.43;;;6.80;;
49488;SDS011;35382;51.484;11.476;2022-07-06T00:14:41;8.13;;;7.43;;
49488;SDS011;35382;51.484;11.476;2022-07-06T00:16:22;7.50;;;6.90;;
49488;SDS011;35382;51.484;11.476;2022-07-06T00:18:03;7.72;;;7.13;;
49488;SDS011;35382;51.484;11.476;2022-07-06T00:19:44;7.82;;;7.15;;
49488;SDS011;35382;51.484;11.476;2022-07-06T00:21:25;8.30;;;7.70;;
49488;SDS011;35382;51.484;11.476;2022-07-06T00:23:06;7.97;;;7.38;;
49488;SDS011;35382;51.484;11.476;2022-07-06T00:24:47;8.60;;;7.95;;
49488;SDS011;35382;51.484;11.476;2022-07-06T00:26:28;8.95;;;8.25;;
49488;SDS011;35382;51.484;11.476;2022-07-06T00:28:09;8.48;;;7.82;;
49488;SDS011;35382;51.484;11.476;2022-07-06T00:29:50;9.50;;;8.70;;
49488;SDS011;35382;51.484;11.476;2022-07-06T00:31:31;9.25;;;8.65;;
49488;SDS011;35382;51.484;11.476;2022-07-06T00:33:11;10.10;;;9.23;;
49488;SDS011;35382;51.484;11.476;2022-07-06T00:34:52;9.48;;;8.77;;
49488;SDS011;35382;51.484;11.476;2022-07-06T00:36:33;10.00;;;9.07;;
49488;SDS011;35382;51.484;11.476;2022-07-06T00:38:14;10.20;;;9.40;;
49488;SDS011;35382;51.484;11.476;2022-07-06T00:39:55;9.40;;;8.65;;
49488;SDS011;35382;51.484;11.476;2022-07-06T00:41:36;9.60;;;8.90;;
49488;SDS011;35382;51.484;11.476;2022-07-06T00:43:17;9.32;;;8.50;;
49488;SDS011;35382;51.484;11.476;2022-07-06T00:44:58;9.95;;;9.25;;
49488;SDS011;35382;51.484;11.476;2022-07-06T00:46:39;9.27;;;8.57;;
49488;SDS011;35382;51.484;11.476;2022-07-06T00:48:20;9.48;;;8.60;;
49488;SDS011;35382;51.484;11.476;2022-07-06T00:50:01;10.30;;;9.60;;
49488;SDS011;35382;51.484;11.476;2022-07-06T00:51:56;9.10;;;8.40;;
49488;SDS011;35382;51.484;11.476;2022-07-06T00:53:38;10.07;;;8.95;;
49488;SDS011;35382;51.484;11.476;2022-07-06T00:55:31;8.75;;;7.95;;
49488;SDS011;35382;51.484;11.476;2022-07-06T00:57:13;9.23;;;8.43;;
49488;SDS011;35382;51.484;11.476;2022-07-06T00:58:54;8.70;;;8.07;;
49488;SDS011;35382;51.484;11.476;2022-07-06T01:00:35;9.50;;;8.80;;
49488;SDS011;35382;51.484;11.476;2022-07-06T01:02:16;9.85;;;9.05;;
49488;SDS011;35382;51.484;11.476;2022-07-06T01:03:58;10.57;;;9.88;;
49488;SDS011;35382;51.484;11.476;2022-07-06T01:05:39;10.02;;;9.25;;
49488;SDS011;35382;51.484;11.476;2022-07-06T01:07:20;10.30;;;9.60;;
49488;SDS011;35382;51.484;11.476;2022-07-06T01:09:01;9.82;;;9.05;;
49488;SDS011;35382;51.484;11.476;2022-07-06T01:10:42;9.75;;;9.05;;
49488;SDS011;35382;51.484;11.476;2022-07-06T01:12:24;10.20;;;9.30;;
49488;SDS011;35382;51.484;11.476;2022-07-06T01:14:05;9.65;;;8.95;;
49488;SDS011;35382;51.484;11.476;2022-07-06T01:15:47;9.82;;;9.13;;
49488;SDS011;35382;51.484;11.476;2022-07-06T01:17:28;9.40;;;8.60;;
49488;SDS011;35382;51.484;11.476;2022-07-06T01:19:10;9.82;;;9.23;;
49488;SDS011;35382;51.484;11.476;2022-07-06T01:20:51;10.95;;;10.35;;
49488;SDS011;35382;51.484;11.476;2022-07-06T01:22:32;11.15;;;10.32;;
49488;SDS011;35382;51.484;11.476;2022-07-06T01:24:13;12.55;;;11.02;;
49488;SDS011;35382;51.484;11.476;2022-07-06T01:25:54;9.73;;;9.02;;
49488;SDS011;35382;51.484;11.476;2022-07-06T01:27:36;9.93;;;9.05;;
49488;SDS011;35382;51.484;11.476;2022-07-06T01:29:19;10.23;;;9.30;;
49488;SDS011;35382;51.484;11.476;2022-07-06T01:31:01;11.15;;;10.07;;
49488;SDS011;35382;51.484;11.476;2022-07-06T01:32:42;10.25;;;9.45;;
49488;SDS011;35382;51.484;11.476;2022-07-06T01:34:23;11.45;;;10.65;;
49488;SDS011;35382;51.484;11.476;2022-07-06T01:36:04;11.77;;;10.70;;
49488;SDS011;35382;51.484;11.476;2022-07-06T01:37:45;10.43;;;9.75;;
49488;SDS011;35382;51.484;11.476;2022-07-06T01:39:28;10.48;;;9.88;;
49488;SDS011;35382;51.484;11.476;2022-07-06T01:41:09;10.30;;;9.60;;
49488;SDS011;35382;51.484;11.476;2022-07-06T01:42:50;10.85;;;10.05;;
49488;SDS011;35382;51.484;11.476;2022-07-06T01:44:31;12.07;;;11.20;;
49488;SDS011;35382;51.484;11.476;2022-07-06T01:46:14;11.43;;;10.73;;
49488;SDS011;35382;51.484;11.476;2022-07-06T01:47:54;12.10;;;11.40;;
49488;SDS011;35382;51.484;11.476;2022-07-06T01:49:35;11.80;;;10.85;;
49488;SDS011;35382;51.484;11.476;2022-07-06T01:51:16;11.43;;;10.45;;
49488;SDS011;35382;51.484;11.476;2022-07-06T01:52:59;11.90;;;11.07;;
49488;SDS011;35382;51.484;11.476;2022-07-06T01:54:41;11.60;;;10.65;;
49488;SDS011;35382;51.484;11.476;2022-07-06T01:56:22;11.73;;;10.90;;
49488;SDS011;35382;51.484;11.476;2022-07-06T01:58:07;12.00;;;11.18;;
49488;SDS011;35382;51.484;11.476;2022-07-06T01:59:48;12.82;;;11.93;;
49488;SDS011;35382;51.484;11.476;2022-07-06T02:01:31;13.43;;;12.43;;
49488;SDS011;35382;51.484;11.476;2022-07-06T02:03:12;12.98;;;12.27;;
49488;SDS011;35382;51.484;11.476;2022-07-06T02:04:53;14.48;;;13.27;;
49488;SDS011;35382;51.484;11.476;2022-07-06T02:06:34;13.88;;;13.07;;
49488;SDS011;35382;51.484;11.476;2022-07-06T02:08:15;15.75;;;14.85;;
49488;SDS011;35382;51.484;11.476;2022-07-06T02:09:56;14.63;;;13.57;;
49488;SDS011;35382;51.484;11.476;2022-07-06T02:11:39;16.00;;;15.07;;
49488;SDS011;35382;51.484;11.476;2022-07-06T02:13:20;16.27;;;15.18;;
49488;SDS011;35382;51.484;11.476;2022-07-06T02:15:01;16.88;;;15.90;;
49488;SDS011;35382;51.484;11.476;2022-07-06T02:16:42;16.13;;;15.02;;
49488;SDS011;35382;51.484;11.476;2022-07-06T02:18:23;15.65;;;14.65;;
49488;SDS011;35382;51.484;11.476;2022-07-06T02:20:04;15.38;;;14.18;;
49488;SDS011;35382;51.484;11.476;2022-07-06T02:21:46;17.00;;;15.88;;
49488;SDS011;35382;51.484;11.476;2022-07-06T02:23:27;15.90;;;14.90;;
49488;SDS011;35382;51.484;11.476;2022-07-06T02:25:08;15.13;;;14.13;;
49488;SDS011;35382;51.484;11.476;2022-07-06T02:26:49;15.18;;;14.13;;
49488;SDS011;35382;51.484;11.476;2022-07-06T02:28:31;15.85;;;14.77;;
49488;SDS011;35382;51.484;11.476;2022-07-06T02:30:12;15.45;;;14.30;;
49488;SDS011;35382;51.484;11.476;2022-07-06T02:31:53;17.15;;;16.05;;
49488;SDS011;35382;51.484;11.476;2022-07-06T02:33:34;15.88;;;14.82;;
49488;SDS011;35382;51.484;11.476;2022-07-06T02:35:15;15.98;;;14.88;;
49488;SDS011;35382;51.484;11.476;2022-07-06T02:36:56;17.42;;;15.95;;
49488;SDS011;35382;51.484;11.476;2022-07-06T02:38:38;15.88;;;14.93;;
49488;SDS011;35382;51.484;11.476;2022-07-06T02:40:20;14.55;;;13.50;;
49488;SDS011;35382;51.484;11.476;2022-07-06T02:42:00;15.15;;;14.25;;
49488;SDS011;35382;51.484;11.476;2022-07-06T02:43:41;15.15;;;14.25;;
49488;SDS011;35382;51.484;11.476;2022-07-06T02:45:24;15.05;;;14.15;;
49488;SDS011;35382;51.484;11.476;2022-07-06T02:47:04;15.57;;;14.68;;
49488;SDS011;35382;51.484;11.476;2022-07-06T02:48:45;17.63;;;16.58;;
49488;SDS011;35382;51.484;11.476;2022-07-06T02:50:27;16.45;;;15.38;;
49488;SDS011;35382;51.484;11.476;2022-07-06T02:52:09;17.20;;;16.20;;
49488;SDS011;35382;51.484;11.476;2022-07-06T02:53:51;19.98;;;18.58;;
49488;SDS011;35382;51.484;11.476;2022-07-06T02:55:32;19.10;;;17.90;;
49488;SDS011;35382;51.484;11.476;2022-07-06T02:57:13;18.58;;;17.55;;
49488;SDS011;35382;51.484;11.476;2022-07-06T02:58:54;17.42;;;16.13;;
49488;SDS011;35382;51.484;11.476;2022-07-06T03:00:35;18.02;;;17.02;;
49488;SDS011;35382;51.484;11.476;2022-07-06T03:02:17;16.75;;;15.48;;
49488;SDS011;35382;51.484;11.476;2022-07-06T03:03:58;18.77;;;17.73;;
49488;SDS011;35382;51.484;11.476;2022-07-06T03:05:39;17.02;;;15.95;;
49488;SDS011;35382;51.484;11.476;2022-07-06T03:07:21;17.48;;;16.38;;
49488;SDS011;35382;51.484;11.476;2022-07-06T03:09:02;18.95;;;17.77;;
49488;SDS011;35382;51.484;11.476;2022-07-06T03:10:43;20.20;;;19.08;;
49488;SDS011;35382;51.484;11.476;2022-07-06T03:12:24;18.40;;;17.10;;
49488;SDS011;35382;51.484;11.476;2022-07-06T03:14:05;20.83;;;19.60;;
49488;SDS011;35382;51.484;11.476;2022-07-06T03:15:49;18.00;;;17.00;;
49488;SDS011;35382;51.484;11.476;2022-07-06T03:17:31;18.95;;;17.90;;
49488;SDS011;35382;51.484;11.476;2022-07-06T03:19:12;16.80;;;15.60;;
49488;SDS011;35382;51.484;11.476;2022-07-06T03:20:53;16.85;;;15.77;;
49488;SDS011;35382;51.484;11.476;2022-07-06T03:22:35;17.60;;;16.58;;
49488;SDS011;35382;51.484;11.476;2022-07-06T03:24:18;16.20;;;15.20;;
49488;SDS011;35382;51.484;11.476;2022-07-06T03:25:59;16.80;;;15.90;;
49488;SDS011;35382;51.484;11.476;2022-07-06T03:27:39;18.25;;;17.10;;
49488;SDS011;35382;51.484;11.476;2022-07-06T03:29:20;16.95;;;15.95;;
49488;SDS011;35382;51.484;11.476;2022-07-06T03:31:02;17.70;;;16.50;;
49488;SDS011;35382;51.484;11.476;2022-07-06T03:32:43;18.67;;;17.48;;
49488;SDS011;35382;51.484;11.476;2022-07-06T03:34:24;17.55;;;16.35;;
49488;SDS011;35382;51.484;11.476;2022-07-06T03:36:06;17.65;;;16.50;;
49488;SDS011;35382;51.484;11.476;2022-07-06T03:37:49;18.30;;;17.20;;
49488;SDS011;35382;51.484;11.476;2022-07-06T03:39:30;18.27;;;17.17;;
49488;SDS011;35382;51.484;11.476;2022-07-06T03:41:12;16.38;;;15.38;;
49488;SDS011;35382;51.484;11.476;2022-07-06T03:42:53;18.83;;;17.48;;
49488;SDS011;35382;51.484;11.476;2022-07-06T03:44:35;16.90;;;15.88;;
49488;SDS011;35382;51.484;11.476;2022-07-06T03:46:16;17.67;;;16.45;;
49488;SDS011;35382;51.484;11.476;2022-07-06T03:47:57;15.88;;;14.77;;
49488;SDS011;35382;51.484;11.476;2022-07-06T03:49:39;18.30;;;17.10;;
49488;SDS011;35382;51.484;11.476;2022-07-06T03:51:22;15.82;;;14.73;;
49488;SDS011;35382;51.484;11.476;2022-07-06T03:53:04;13.98;;;13.00;;
49488;SDS011;35382;51.484;11.476;2022-07-06T03:54:45;17.38;;;16.35;;
49488;SDS011;35382;51.484;11.476;2022-07-06T03:56:32;14.50;;;13.60;;
49488;SDS011;35382;51.484;11.476;2022-07-06T03:58:26;12.75;;;11.90;;
49488;SDS011;35382;51.484;11.476;2022-07-06T04:00:08;14.52;;;13.52;;
49488;SDS011;35382;51.484;11.476;2022-07-06T04:01:55;14.15;;;12.82;;
49488;SDS011;35382;51.484;11.476;2022-07-06T04:03:36;12.65;;;11.85;;
49488;SDS011;35382;51.484;11.476;2022-07-06T04:05:17;13.55;;;12.73;;
49488;SDS011;35382;51.484;11.476;2022-07-06T04:07:01;13.20;;;12.20;;
49488;SDS011;35382;51.484;11.476;2022-07-06T04:08:43;12.48;;;11.52;;
49488;SDS011;35382;51.484;11.476;2022-07-06T04:10:24;13.48;;;12.55;;
49488;SDS011;35382;51.484;11.476;2022-07-06T04:12:05;12.52;;;11.73;;
49488;SDS011;35382;51.484;11.476;2022-07-06T04:13:47;12.27;;;11.18;;
49488;SDS011;35382;51.484;11.476;2022-07-06T04:15:28;11.32;;;10.52;;
49488;SDS011;35382;51.484;11.476;2022-07-06T04:17:09;10.32;;;9.48;;
49488;SDS011;35382;51.484;11.476;2022-07-06T04:19:09;9.35;;;8.65;;
49488;SDS011;35382;51.484;11.476;2022-07-06T04:20:50;10.57;;;9.68;;
49488;SDS011;35382;51.484;11.476;2022-07-06T04:22:32;9.27;;;8.40;;
49488;SDS011;35382;51.484;11.476;2022-07-06T04:24:13;8.35;;;7.60;;
49488;SDS011;35382;51.484;11.476;2022-07-06T04:25:54;9.07;;;8.23;;
49488;SDS011;35382;51.484;11.476;2022-07-06T04:27:35;7.90;;;7.30;;
49488;SDS011;35382;51.484;11.476;2022-07-06T04:29:16;10.00;;;9.20;;
49488;SDS011;35382;51.484;11.476;2022-07-06T04:30:57;10.20;;;9.40;;
49488;SDS011;35382;51.484;11.476;2022-07-06T04:32:39;9.93;;;8.98;;
49488;SDS011;35382;51.484;11.476;2022-07-06T04:34:20;9.10;;;8.40;;
49488;SDS011;35382;51.484;11.476;2022-07-06T04:36:01;9.70;;;8.70;;
49488;SDS011;35382;51.484;11.476;2022-07-06T04:37:50;8.48;;;7.75;;
49488;SDS011;35382;51.484;11.476;2022-07-06T04:39:34;11.15;;;10.25;;
49488;SDS011;35382;51.484;11.476;2022-07-06T04:41:16;8.45;;;7.75;;
49488;SDS011;35382;51.484;11.476;2022-07-06T04:42:58;9.27;;;7.82;;
49488;SDS011;35382;51.484;11.476;2022-07-06T04:44:40;8.40;;;7.65;;
49488;SDS011;35382;51.484;11.476;2022-07-06T04:46:21;8.52;;;7.68;;
49488;SDS011;35382;51.484;11.476;2022-07-06T04:48:05;9.88;;;9.18;;
49488;SDS011;35382;51.484;11.476;2022-07-06T04:49:49;7.55;;;6.63;;
49488;SDS011;35382;51.484;11.476;2022-07-06T04:51:31;9.50;;;7.45;;
49488;SDS011;35382;51.484;11.476;2022-07-06T04:53:13;8.80;;;8.30;;
49488;SDS011;35382;51.484;11.476;2022-07-06T04:54:54;8.13;;;7.40;;
49488;SDS011;35382;51.484;11.476;2022-07-06T04:56:35;8.75;;;8.05;;
49488;SDS011;35382;51.484;11.476;2022-07-06T04:58:17;6.80;;;6.20;;
49488;SDS011;35382;51.484;11.476;2022-07-06T04:59:57;7.90;;;6.30;;
49488;SDS011;35382;51.484;11.476;2022-07-06T05:01:39;7.30;;;6.70;;
49488;SDS011;35382;51.484;11.476;2022-07-06T05:03:21;7.22;;;6.72;;
49488;SDS011;35382;51.484;11.476;2022-07-06T05:05:02;7.80;;;6.85;;
49488;SDS011;35382;51.484;11.476;2022-07-06T05:06:43;7.43;;;6.55;;
49488;SDS011;35382;51.484;11.476;2022-07-06T05:08:25;7.22;;;6.63;;
49488;SDS011;35382;51.484;11.476;2022-07-06T05:10:07;9.05;;;6.72;;
49488;SDS011;35382;51.484;11.476;2022-07-06T05:11:49;7.70;;;7.00;;
49488;SDS011;35382;51.484;11.476;2022-07-06T05:13:30;7.50;;;6.90;;
49488;SDS011;35382;51.484;11.476;2022-07-06T05:15:11;7.88;;;7.15;;
49488;SDS011;35382;51.484;11.476;2022-07-06T05:16:52;9.75;;;8.95;;
49488;SDS011;35382;51.484;11.476;2022-07-06T05:18:34;8.57;;;7.78;;
49488;SDS011;35382;51.484;11.476;2022-07-06T05:20:15;9.77;;;8.80;;
49488;SDS011;35382;51.484;11.476;2022-07-06T05:21:59;9.52;;;8.63;;
49488;SDS011;35382;51.484;11.476;2022-07-06T05:23:40;11.55;;;10.65;;
49488;SDS011;35382;51.484;11.476;2022-07-06T05:25:21;9.90;;;9.10;;
49488;SDS011;35382;51.484;11.476;2022-07-06T05:27:02;9.90;;;9.07;;
49488;SDS011;35382;51.484;11.476;2022-07-06T05:28:43;9.38;;;8.57;;
49488;SDS011;35382;51.484;11.476;2022-07-06T05:30:28;10.60;;;9.75;;
49488;SDS011;35382;51.484;11.476;2022-07-06T05:32:09;10.27;;;9.48;;
49488;SDS011;35382;51.484;11.476;2022-07-06T05:33:50;10.00;;;9.30;;
49488;SDS011;35382;51.484;11.476;2022-07-06T05:35:31;8.88;;;8.02;;
49488;SDS011;35382;51.484;11.476;2022-07-06T05:37:14;16.40;;;8.07;;
49488;SDS011;35382;51.484;11.476;2022-07-06T05:38:54;9.02;;;7.45;;
49488;SDS011;35382;51.484;11.476;2022-07-06T05:40:35;8.80;;;7.55;;
49488;SDS011;35382;51.484;11.476;2022-07-06T05:42:17;9.18;;;8.38;;
49488;SDS011;35382;51.484;11.476;2022-07-06T05:44:00;7.75;;;6.95;;
49488;SDS011;35382;51.484;11.476;2022-07-06T05:45:41;7.38;;;6.68;;
49488;SDS011;35382;51.484;11.476;2022-07-06T05:47:23;9.10;;;8.40;;
49488;SDS011;35382;51.484;11.476;2022-07-06T05:49:22;7.55;;;6.90;;
49488;SDS011;35382;51.484;11.476;2022-07-06T05:51:22;7.70;;;6.85;;
49488;SDS011;35382;51.484;11.476;2022-07-06T05:53:04;7.65;;;7.03;;
49488;SDS011;35382;51.484;11.476;2022-07-06T05:54:45;7.88;;;7.18;;
49488;SDS011;35382;51.484;11.476;2022-07-06T05:56:26;7.30;;;5.68;;
49488;SDS011;35382;51.484;11.476;2022-07-06T05:58:07;7.88;;;5.53;;
49488;SDS011;35382;51.484;11.476;2022-07-06T05:59:49;7.43;;;6.35;;
49488;SDS011;35382;51.484;11.476;2022-07-06T06:01:30;7.88;;;6.07;;
49488;SDS011;35382;51.484;11.476;2022-07-06T06:03:22;7.05;;;6.15;;
49488;SDS011;35382;51.484;11.476;2022-07-06T06:05:04;5.47;;;4.80;;
49488;SDS011;35382;51.484;11.476;2022-07-06T06:06:46;6.40;;;4.90;;
49488;SDS011;35382;51.484;11.476;2022-07-06T06:08:27;8.90;;;5.07;;
49488;SDS011;35382;51.484;11.476;2022-07-06T06:10:09;5.50;;;4.47;;
49488;SDS011;35382;51.484;11.476;2022-07-06T06:11:52;8.27;;;5.07;;
49488;SDS011;35382;51.484;11.476;2022-07-06T06:13:32;6.63;;;4.75;;
49488;SDS011;35382;51.484;11.476;2022-07-06T06:15:13;6.38;;;4.70;;
49488;SDS011;35382;51.484;11.476;2022-07-06T06:16:54;6.35;;;4.63;;
49488;SDS011;35382;51.484;11.476;2022-07-06T06:18:35;6.45;;;5.20;;
49488;SDS011;35382;51.484;11.476;2022-07-06T06:20:16;5.30;;;4.80;;
49488;SDS011;35382;51.484;11.476;2022-07-06T06:21:57;5.60;;;4.70;;
49488;SDS011;35382;51.484;11.476;2022-07-06T06:23:38;4.97;;;4.57;;
49488;SDS011;35382;51.484;11.476;2022-07-06T06:25:20;5.90;;;4.85;;
49488;SDS011;35382;51.484;11.476;2022-07-06T06:27:07;5.35;;;4.80;;
49488;SDS011;35382;51.484;11.476;2022-07-06T06:28:48;5.18;;;4.68;;
49488;SDS011;35382;51.484;11.476;2022-07-06T06:30:30;6.03;;;5.53;;
49488;SDS011;35382;51.484;11.476;2022-07-06T06:32:11;4.88;;;4.40;;
49488;SDS011;35382;51.484;11.476;2022-07-06T06:33:53;5.43;;;4.93;;
49488;SDS011;35382;51.484;11.476;2022-07-06T06:35:34;5.13;;;4.63;;
49488;SDS011;35382;51.484;11.476;2022-07-06T06:37:15;5.95;;;4.30;;
49488;SDS011;35382;51.484;11.476;2022-07-06T06:38:56;5.13;;;4.63;;
49488;SDS011;35382;51.484;11.476;2022-07-06T06:40:37;5.53;;;4.60;;
49488;SDS011;35382;51.484;11.476;2022-07-06T06:42:18;5.28;;;4.50;;
49488;SDS011;35382;51.484;11.476;2022-07-06T06:43:59;5.50;;;4.55;;
49488;SDS011;35382;51.484;11.476;2022-07-06T06:45:43;6.53;;;4.72;;
49488;SDS011;35382;51.484;11.476;2022-07-06T06:47:25;5.20;;;4.60;;
49488;SDS011;35382;51.484;11.476;2022-07-06T06:49:06;5.70;;;4.60;;
49488;SDS011;35382;51.484;11.476;2022-07-06T06:50:47;4.82;;;4.43;;
49488;SDS011;35382;51.484;11.476;2022-07-06T06:52:28;6.15;;;4.55;;
49488;SDS011;35382;51.484;11.476;2022-07-06T06:54:09;4.97;;;4.43;;
49488;SDS011;35382;51.484;11.476;2022-07-06T06:55:50;5.60;;;4.68;;
49488;SDS011;35382;51.484;11.476;2022-07-06T06:57:31;5.22;;;4.75;;
49488;SDS011;35382;51.484;11.476;2022-07-06T06:59:11;5.68;;;4.40;;
49488;SDS011;35382;51.484;11.476;2022-07-06T07:00:52;4.50;;;4.10;;
49488;SDS011;35382;51.484;11.476;2022-07-06T07:02:33;5.50;;;4.78;;
49488;SDS011;35382;51.484;11.476;2022-07-06T07:04:14;6.30;;;4.38;;
49488;SDS011;35382;51.484;11.476;2022-07-06T07:05:55;6.07;;;4.63;;
49488;SDS011;35382;51.484;11.476;2022-07-06T07:07:36;6.07;;;4.45;;
49488;SDS011;35382;51.484;11.476;2022-07-06T07:09:17;4.78;;;4.28;;
49488;SDS011;35382;51.484;11.476;2022-07-06T07:10:58;5.03;;;4.00;;
49488;SDS011;35382;51.484;11.476;2022-07-06T07:12:43;4.32;;;3.90;;
49488;SDS011;35382;51.484;11.476;2022-07-06T07:14:25;4.50;;;4.10;;
49488;SDS011;35382;51.484;11.476;2022-07-06T07:16:08;6.07;;;4.28;;
49488;SDS011;35382;51.484;11.476;2022-07-06T07:17:49;4.47;;;4.05;;
49488;SDS011;35382;51.484;11.476;2022-07-06T07:19:30;7.45;;;4.30;;
49488;SDS011;35382;51.484;11.476;2022-07-06T07:21:11;4.75;;;4.13;;
49488;SDS011;35382;51.484;11.476;2022-07-06T07:22:51;4.93;;;4.30;;
49488;SDS011;35382;51.484;11.476;2022-07-06T07:24:32;5.68;;;3.80;;
49488;SDS011;35382;51.484;11.476;2022-07-06T07:26:13;4.80;;;3.80;;
49488;SDS011;35382;51.484;11.476;2022-07-06T07:27:54;4.28;;;3.88;;
49488;SDS011;35382;51.484;11.476;2022-07-06T07:29:35;4.13;;;3.70;;
49488;SDS011;35382;51.484;11.476;2022-07-06T07:31:16;4.28;;;3.88;;
49488;SDS011;35382;51.484;11.476;2022-07-06T07:32:57;5.22;;;4.05;;
49488;SDS011;35382;51.484;11.476;2022-07-06T07:34:40;5.55;;;3.90;;
49488;SDS011;35382;51.484;11.476;2022-07-06T07:36:21;5.82;;;3.63;;
49488;SDS011;35382;51.484;11.476;2022-07-06T07:38:02;6.82;;;4.20;;
49488;SDS011;35382;51.484;11.476;2022-07-06T07:39:43;4.63;;;4.00;;
49488;SDS011;35382;51.484;11.476;2022-07-06T07:41:24;4.38;;;4.00;;
49488;SDS011;35382;51.484;11.476;2022-07-06T07:43:05;4.30;;;3.95;;
49488;SDS011;35382;51.484;11.476;2022-07-06T07:44:46;4.20;;;3.83;;
49488;SDS011;35382;51.484;11.476;2022-07-06T07:46:27;5.43;;;4.10;;
49488;SDS011;35382;51.484;11.476;2022-07-06T07:48:08;5.07;;;4.18;;
49488;SDS011;35382;51.484;11.476;2022-07-06T07:49:49;4.63;;;4.13;;
49488;SDS011;35382;51.484;11.476;2022-07-06T07:51:30;4.45;;;3.75;;
49488;SDS011;35382;51.484;11.476;2022-07-06T07:53:11;4.68;;;4.10;;
49488;SDS011;35382;51.484;11.476;2022-07-06T07:54:52;4.88;;;4.45;;
49488;SDS011;35382;51.484;11.476;2022-07-06T07:56:33;4.82;;;3.83;;
49488;SDS011;35382;51.484;11.476;2022-07-06T07:58:14;4.43;;;3.92;;
49488;SDS011;35382;51.484;11.476;2022-07-06T07:59:55;5.10;;;3.72;;
49488;SDS011;35382;51.484;11.476;2022-07-06T08:01:36;4.22;;;3.72;;
49488;SDS011;35382;51.484;11.476;2022-07-06T08:03:17;4.75;;;4.13;;
49488;SDS011;35382;51.484;11.476;2022-07-06T08:04:58;4.10;;;3.60;;
49488;SDS011;35382;51.484;11.476;2022-07-06T08:06:39;5.13;;;3.58;;
49488;SDS011;35382;51.484;11.476;2022-07-06T08:08:20;4.38;;;3.97;;
49488;SDS011;35382;51.484;11.476;2022-07-06T08:10:01;4.10;;;3.67;;
49488;SDS011;35382;51.484;11.476;2022-07-06T08:11:42;5.35;;;3.85;;
49488;SDS011;35382;51.484;11.476;2022-07-06T08:13:23;5.70;;;3.67;;
49488;SDS011;35382;51.484;11.476;2022-07-06T08:15:04;4.63;;;4.10;;
49488;SDS011;35382;51.484;11.476;2022-07-06T08:16:46;4.22;;;3.85;;
49488;SDS011;35382;51.484;11.476;2022-07-06T08:18:27;5.13;;;4.63;;
49488;SDS011;35382;51.484;11.476;2022-07-06T08:20:08;6.03;;;3.70;;
49488;SDS011;35382;51.484;11.476;2022-07-06T08:21:49;5.82;;;4.03;;
49488;SDS011;35382;51.484;11.476;2022-07-06T08:23:30;4.50;;;3.80;;
49488;SDS011;35382;51.484;11.476;2022-07-06T08:25:11;5.70;;;3.90;;
49488;SDS011;35382;51.484;11.476;2022-07-06T08:26:52;4.38;;;3.88;;
49488;SDS011;35382;51.484;11.476;2022-07-06T08:28:33;5.25;;;4.38;;
49488;SDS011;35382;51.484;11.476;2022-07-06T08:30:14;4.45;;;4.03;;
49488;SDS011;35382;51.484;11.476;2022-07-06T08:31:55;5.32;;;4.00;;
49488;SDS011;35382;51.484;11.476;2022-07-06T08:33:36;4.45;;;4.05;;
49488;SDS011;35382;51.484;11.476;2022-07-06T08:35:17;3.85;;;3.45;;
49488;SDS011;35382;51.484;11.476;2022-07-06T08:36:58;4.90;;;3.83;;
49488;SDS011;35382;51.484;11.476;2022-07-06T08:38:39;3.60;;;3.30;;
49488;SDS011;35382;51.484;11.476;2022-07-06T08:40:20;4.70;;;3.53;;
49488;SDS011;35382;51.484;11.476;2022-07-06T08:42:01;4.20;;;3.75;;
49488;SDS011;35382;51.484;11.476;2022-07-06T08:43:42;5.53;;;4.07;;
49488;SDS011;35382;51.484;11.476;2022-07-06T08:45:24;4.10;;;3.70;;
49488;SDS011;35382;51.484;11.476;2022-07-06T08:47:06;5.13;;;4.03;;
49488;SDS011;35382;51.484;11.476;2022-07-06T08:48:50;5.05;;;3.83;;
49488;SDS011;35382;51.484;11.476;2022-07-06T08:50:32;4.43;;;4.00;;
49488;SDS011;35382;51.484;11.476;2022-07-06T08:52:13;4.18;;;3.53;;
49488;SDS011;35382;51.484;11.476;2022-07-06T08:53:55;5.55;;;4.03;;
49488;SDS011;35382;51.484;11.476;2022-07-06T08:55:37;6.03;;;4.22;;
49488;SDS011;35382;51.484;11.476;2022-07-06T08:57:19;4.72;;;3.90;;
49488;SDS011;35382;51.484;11.476;2022-07-06T08:59:00;4.00;;;3.60;;
49488;SDS011;35382;51.484;11.476;2022-07-06T09:00:41;4.32;;;3.60;;
49488;SDS011;35382;51.484;11.476;2022-07-06T09:02:23;5.45;;;4.10;;
49488;SDS011;35382;51.484;11.476;2022-07-06T09:04:06;3.80;;;3.03;;
49488;SDS011;35382;51.484;11.476;2022-07-06T09:05:48;3.75;;;3.38;;
49488;SDS011;35382;51.484;11.476;2022-07-06T09:07:30;4.13;;;3.72;;
49488;SDS011;35382;51.484;11.476;2022-07-06T09:09:11;4.45;;;3.58;;
49488;SDS011;35382;51.484;11.476;2022-07-06T09:11:02;4.20;;;3.78;;
49488;SDS011;35382;51.484;11.476;2022-07-06T09:12:44;4.60;;;3.80;;
49488;SDS011;35382;51.484;11.476;2022-07-06T09:14:25;4.50;;;3.45;;
49488;SDS011;35382;51.484;11.476;2022-07-06T09:16:13;5.70;;;3.65;;
49488;SDS011;35382;51.484;11.476;2022-07-06T09:17:55;5.38;;;4.25;;
49488;SDS011;35382;51.484;11.476;2022-07-06T09:19:37;5.60;;;3.42;;
49488;SDS011;35382;51.484;11.476;2022-07-06T09:21:22;5.65;;;3.70;;
49488;SDS011;35382;51.484;11.476;2022-07-06T09:23:07;4.18;;;3.70;;
49488;SDS011;35382;51.484;11.476;2022-07-06T09:24:47;4.25;;;3.95;;
49488;SDS011;35382;51.484;11.476;2022-07-06T09:26:30;4.25;;;3.85;;
49488;SDS011;35382;51.484;11.476;2022-07-06T09:28:11;5.60;;;3.50;;
49488;SDS011;35382;51.484;11.476;2022-07-06T09:29:52;6.07;;;4.35;;
49488;SDS011;35382;51.484;11.476;2022-07-06T09:31:33;3.70;;;3.20;;
49488;SDS011;35382;51.484;11.476;2022-07-06T09:33:17;6.53;;;3.72;;
49488;SDS011;35382;51.484;11.476;2022-07-06T09:34:58;4.30;;;3.60;;
49488;SDS011;35382;51.484;11.476;2022-07-06T09:36:43;3.40;;;3.10;;
49488;SDS011;35382;51.484;11.476;2022-07-06T09:38:26;4.78;;;3.40;;
49488;SDS011;35382;51.484;11.476;2022-07-06T09:40:15;4.25;;;3.80;;
49488;SDS011;35382;51.484;11.476;2022-07-06T09:42:00;5.93;;;2.83;;
49488;SDS011;35382;51.484;11.476;2022-07-06T09:43:44;7.53;;;3.70;;
49488;SDS011;35382;51.484;11.476;2022-07-06T09:45:28;4.38;;;3.60;;
49488;SDS011;35382;51.484;11.476;2022-07-06T09:47:09;3.70;;;3.17;;
49488;SDS011;35382;51.484;11.476;2022-07-06T09:48:52;4.78;;;2.88;;
49488;SDS011;35382;51.484;11.476;2022-07-06T09:50:40;3.80;;;3.10;;
49488;SDS011;35382;51.484;11.476;2022-07-06T09:52:22;4.93;;;3.20;;
49488;SDS011;35382;51.484;11.476;2022-07-06T09:54:07;4.80;;;3.38;;
49488;SDS011;35382;51.484;11.476;2022-07-06T09:55:52;7.50;;;3.58;;
49488;SDS011;35382;51.484;11.476;2022-07-06T09:57:35;4.07;;;3.25;;
49488;SDS011;35382;51.484;11.476;2022-07-06T09:59:16;4.00;;;3.60;;